sensor_id;sensor_type;location;lat;lon;timestamp;temperature;humidity
57719;DHT22;43561;50.090;18.522;2023-04-03T00:09:48;2.20;99.90
57719;DHT22;43561;50.090;18.522;2023-04-03T00:19:50;2.20;99.90
57719;DHT22;43561;50.090;18.522;2023-04-03T00:29:52;2.20;99.90
57719;DHT22;43561;50.090;18.522;2023-04-03T00:39:54;2.10;99.90
57719;DHT22;43561;50.090;18.522;2023-04-03T00:49:56;1.90;99.90
57719;DHT22;43561;50.090;18.522;2023-04-03T01:00:03;2.00;99.90
57719;DHT22;43561;50.090;18.522;2023-04-03T01:10:10;2.00;99.90
57719;DHT22;43561;50.090;18.522;2023-04-03T01:41:02;2.10;99.90
57719;DHT22;43561;50.090;18.522;2023-04-03T01:51:04;1.90;99.90
57719;DHT22;43561;50.090;18.522;2023-04-03T02:01:06;1.80;99.90
57719;DHT22;43561;50.090;18.522;2023-04-03T02:11:08;1.80;99.90
57719;DHT22;43561;50.090;18.522;2023-04-03T02:21:11;1.70;99.90
57719;DHT22;43561;50.090;18.522;2023-04-03T02:31:13;1.50;99.90
57719;DHT22;43561;50.090;18.522;2023-04-03T02:41:17;1.50;99.90
57719;DHT22;43561;50.090;18.522;2023-04-03T02:51:19;1.50;99.90
57719;DHT22;43561;50.090;18.522;2023-04-03T03:01:21;1.40;99.90
57719;DHT22;43561;50.090;18.522;2023-04-03T03:11:23;1.30;99.90
57719;DHT22;43561;50.090;18.522;2023-04-03T03:21:25;1.20;99.90
57719;DHT22;43561;50.090;18.522;2023-04-03T03:31:27;1.00;99.90
57719;DHT22;43561;50.090;18.522;2023-04-03T03:41:29;0.80;99.90
57719;DHT22;43561;50.090;18.522;2023-04-03T03:51:31;0.60;99.90
57719;DHT22;43561;50.090;18.522;2023-04-03T04:01:34;0.40;99.90
57719;DHT22;43561;50.090;18.522;2023-04-03T04:11:36;0.30;99.90
57719;DHT22;43561;50.090;18.522;2023-04-03T04:21:38;0.10;99.90
57719;DHT22;43561;50.090;18.522;2023-04-03T04:31:40;-0.10;99.90
57719;DHT22;43561;50.090;18.522;2023-04-03T04:41:42;-0.20;99.90
57719;DHT22;43561;50.090;18.522;2023-04-03T04:51:45;-0.20;99.90
57719;DHT22;43561;50.090;18.522;2023-04-03T05:01:58;-0.30;99.90
57719;DHT22;43561;50.090;18.522;2023-04-03T05:12:01;-0.40;99.90
57719;DHT22;43561;50.090;18.522;2023-04-03T05:22:07;-0.40;99.90
57719;DHT22;43561;50.090;18.522;2023-04-03T05:32:11;-0.50;99.90
57719;DHT22;43561;50.090;18.522;2023-04-03T05:42:14;-0.40;99.90
57719;DHT22;43561;50.090;18.522;2023-04-03T05:52:30;0.60;99.90
57719;DHT22;43561;50.090;18.522;2023-04-03T06:02:33;1.30;99.90
57719;DHT22;43561;50.090;18.522;2023-04-03T06:12:35;1.60;99.90
57719;DHT22;43561;50.090;18.522;2023-04-03T06:22:37;1.90;99.90
57719;DHT22;43561;50.090;18.522;2023-04-03T06:32:39;1.50;99.90
57719;DHT22;43561;50.090;18.522;2023-04-03T06:42:41;1.30;99.90
57719;DHT22;43561;50.090;18.522;2023-04-03T06:52:49;1.30;99.90
57719;DHT22;43561;50.090;18.522;2023-04-03T07:02:51;1.50;99.90
57719;DHT22;43561;50.090;18.522;2023-04-03T07:12:53;1.80;99.90
57719;DHT22;43561;50.090;18.522;2023-04-03T07:22:56;2.50;99.90
57719;DHT22;43561;50.090;18.522;2023-04-03T07:32:58;3.30;99.90
57719;DHT22;43561;50.090;18.522;2023-04-03T07:43:00;4.10;99.90
57719;DHT22;43561;50.090;18.522;2023-04-03T07:53:03;4.60;98.50
57719;DHT22;43561;50.090;18.522;2023-04-03T08:03:06;4.70;97.10
57719;DHT22;43561;50.090;18.522;2023-04-03T08:13:11;4.10;98.60
57719;DHT22;43561;50.090;18.522;2023-04-03T08:23:13;2.90;99.90
57719;DHT22;43561;50.090;18.522;2023-04-03T08:33:15;3.90;99.90
57719;DHT22;43561;50.090;18.522;2023-04-03T08:54:02;4.30;72.40
57719;DHT22;43561;50.090;18.522;2023-04-03T09:04:16;4.80;75.90
57719;DHT22;43561;50.090;18.522;2023-04-03T09:14:24;3.70;64.10
57719;DHT22;43561;50.090;18.522;2023-04-03T09:24:28;3.90;59.50
57719;DHT22;43561;50.090;18.522;2023-04-03T09:34:32;4.50;57.70
57719;DHT22;43561;50.090;18.522;2023-04-03T09:44:37;4.10;58.00
57719;DHT22;43561;50.090;18.522;2023-04-03T09:54:39;3.80;58.00
57719;DHT22;43561;50.090;18.522;2023-04-03T10:04:41;3.50;64.20
57719;DHT22;43561;50.090;18.522;2023-04-03T10:14:54;4.10;56.70
57719;DHT22;43561;50.090;18.522;2023-04-03T10:25:03;4.60;54.00
57719;DHT22;43561;50.090;18.522;2023-04-03T10:46:06;4.50;51.50
57719;DHT22;43561;50.090;18.522;2023-04-03T10:56:44;5.10;50.50
57719;DHT22;43561;50.090;18.522;2023-04-03T11:27:23;5.10;52.10
57719;DHT22;43561;50.090;18.522;2023-04-03T11:37:35;4.90;50.90
57719;DHT22;43561;50.090;18.522;2023-04-03T11:47:45;5.40;48.20
57719;DHT22;43561;50.090;18.522;2023-04-03T12:28:42;5.00;48.40
57719;DHT22;43561;50.090;18.522;2023-04-03T12:39:20;4.90;51.60
57719;DHT22;43561;50.090;18.522;2023-04-03T12:49:33;5.20;50.90
57719;DHT22;43561;50.090;18.522;2023-04-03T12:59:37;5.10;51.30
57719;DHT22;43561;50.090;18.522;2023-04-03T13:09:39;4.50;49.40
57719;DHT22;43561;50.090;18.522;2023-04-03T13:19:42;5.30;49.60
57719;DHT22;43561;50.090;18.522;2023-04-03T13:29:50;4.60;49.80
57719;DHT22;43561;50.090;18.522;2023-04-03T13:50:23;5.00;49.00
57719;DHT22;43561;50.090;18.522;2023-04-03T14:00:51;4.80;49.50
57719;DHT22;43561;50.090;18.522;2023-04-03T14:10:51;5.00;50.00
57719;DHT22;43561;50.090;18.522;2023-04-03T14:20:53;4.80;49.10
57719;DHT22;43561;50.090;18.522;2023-04-03T14:30:55;5.00;48.50
57719;DHT22;43561;50.090;18.522;2023-04-03T14:40:58;4.70;49.10
57719;DHT22;43561;50.090;18.522;2023-04-03T14:51:16;4.70;48.30
57719;DHT22;43561;50.090;18.522;2023-04-03T15:01:18;4.50;48.90
57719;DHT22;43561;50.090;18.522;2023-04-03T15:11:20;4.50;49.00
57719;DHT22;43561;50.090;18.522;2023-04-03T15:21:22;4.50;48.60
57719;DHT22;43561;50.090;18.522;2023-04-03T15:31:24;4.50;49.60
57719;DHT22;43561;50.090;18.522;2023-04-03T15:41:26;4.20;50.20
57719;DHT22;43561;50.090;18.522;2023-04-03T15:51:28;4.10;50.00
57719;DHT22;43561;50.090;18.522;2023-04-03T16:01:30;3.90;50.60
57719;DHT22;43561;50.090;18.522;2023-04-03T16:11:33;3.90;51.60
57719;DHT22;43561;50.090;18.522;2023-04-03T16:21:34;3.70;51.20
57719;DHT22;43561;50.090;18.522;2023-04-03T16:31:37;3.70;51.30
57719;DHT22;43561;50.090;18.522;2023-04-03T16:41:39;3.60;52.40
57719;DHT22;43561;50.090;18.522;2023-04-03T16:51:41;3.40;52.20
57719;DHT22;43561;50.090;18.522;2023-04-03T17:01:43;3.20;52.40
57719;DHT22;43561;50.090;18.522;2023-04-03T17:11:45;3.10;52.90
57719;DHT22;43561;50.090;18.522;2023-04-03T17:21:51;3.00;53.20
57719;DHT22;43561;50.090;18.522;2023-04-03T17:31:53;2.90;54.20
57719;DHT22;43561;50.090;18.522;2023-04-03T17:41:55;2.80;55.60
57719;DHT22;43561;50.090;18.522;2023-04-03T17:51:57;2.80;56.20
57719;DHT22;43561;50.090;18.522;2023-04-03T18:01:59;2.70;56.20
57719;DHT22;43561;50.090;18.522;2023-04-03T18:12:04;2.60;57.00
57719;DHT22;43561;50.090;18.522;2023-04-03T18:22:15;2.60;57.60
57719;DHT22;43561;50.090;18.522;2023-04-03T18:32:18;2.50;57.90
57719;DHT22;43561;50.090;18.522;2023-04-03T18:42:23;2.50;58.80
57719;DHT22;43561;50.090;18.522;2023-04-03T18:52:25;2.40;58.00
57719;DHT22;43561;50.090;18.522;2023-04-03T19:02:27;2.40;57.80
57719;DHT22;43561;50.090;18.522;2023-04-03T19:12:29;2.30;57.90
57719;DHT22;43561;50.090;18.522;2023-04-03T19:22:31;2.30;58.60
57719;DHT22;43561;50.090;18.522;2023-04-03T19:32:33;2.30;60.70
57719;DHT22;43561;50.090;18.522;2023-04-03T19:42:35;2.10;63.60
57719;DHT22;43561;50.090;18.522;2023-04-03T19:52:37;2.00;68.30
57719;DHT22;43561;50.090;18.522;2023-04-03T20:02:39;1.90;74.70
57719;DHT22;43561;50.090;18.522;2023-04-03T20:12:41;1.80;79.90
57719;DHT22;43561;50.090;18.522;2023-04-03T20:22:43;1.80;86.40
57719;DHT22;43561;50.090;18.522;2023-04-03T20:32:44;1.60;87.90
57719;DHT22;43561;50.090;18.522;2023-04-03T20:42:46;1.50;90.00
57719;DHT22;43561;50.090;18.522;2023-04-03T20:52:49;1.50;92.20
57719;DHT22;43561;50.090;18.522;2023-04-03T21:02:50;1.50;94.60
57719;DHT22;43561;50.090;18.522;2023-04-03T21:23:32;1.40;95.50
57719;DHT22;43561;50.090;18.522;2023-04-03T21:33:34;1.40;96.60
57719;DHT22;43561;50.090;18.522;2023-04-03T21:43:36;1.30;97.90
57719;DHT22;43561;50.090;18.522;2023-04-03T21:53:38;1.20;99.10
57719;DHT22;43561;50.090;18.522;2023-04-03T22:03:41;1.20;99.90
57719;DHT22;43561;50.090;18.522;2023-04-03T22:13:43;1.10;99.90
57719;DHT22;43561;50.090;18.522;2023-04-03T22:23:45;1.00;99.90
57719;DHT22;43561;50.090;18.522;2023-04-03T22:33:47;1.00;99.90
57719;DHT22;43561;50.090;18.522;2023-04-03T22:43:50;0.90;99.90
57719;DHT22;43561;50.090;18.522;2023-04-03T22:53:52;0.90;99.90
57719;DHT22;43561;50.090;18.522;2023-04-03T23:03:54;0.80;99.90
57719;DHT22;43561;50.090;18.522;2023-04-03T23:13:56;0.70;99.90
57719;DHT22;43561;50.090;18.522;2023-04-03T23:23:58;0.60;99.90
57719;DHT22;43561;50.090;18.522;2023-04-03T23:34:00;0.50;99.90
57719;DHT22;43561;50.090;18.522;2023-04-03T23:44:02;0.40;99.90
57719;DHT22;43561;50.090;18.522;2023-04-03T23:54:04;0.40;99.90
